Time;durP1;ratioP1;P1;durP2;ratioP2;P2;SDS_P1;SDS_P2;PMS_P1;PMS_P2;Temp;Humidity;BMP_temperature;BMP_pressure;BME280_temperature;BME280_humidity;BME280_pressure;Samples;Min_cycle;Max_cycle;Signal;HPM_P1;HPM_P2
2021/12/19 00:02:18;;;;;;;7.83;3.00;;;;;;;6.40;100.00;101754.81;4980104;28;20096;-82
2021/12/19 00:08:28;;;;;;;8.23;3.60;;;;;;;6.45;100.00;101747.88;4970544;28;20061;-80
2021/12/19 00:10:26;;;;;;;6.97;3.83;;;;;;;6.42;100.00;101750.47;4992422;28;20034;-83
2021/12/19 00:12:54;;;;;;;9.40;3.93;;;;;;;6.44;100.00;101754.00;4978744;28;20434;-85
2021/12/19 00:15:21;;;;;;;7.80;3.23;;;;;;;6.41;100.00;101753.97;4968884;28;20052;-80
2021/12/19 00:17:47;;;;;;;6.50;3.13;;;;;;;6.44;100.00;101759.22;4995333;28;20049;-84
2021/12/19 00:20:18;;;;;;;8.57;4.07;;;;;;;6.40;100.00;101750.44;4960913;28;20045;-81
2021/12/19 00:23:04;;;;;;;7.40;3.03;;;;;;;6.42;100.00;101732.97;4982118;28;20046;-81
2021/12/19 00:25:33;;;;;;;7.63;2.83;;;;;;;6.40;100.00;101737.31;4975931;28;20042;-79
2021/12/19 00:28:00;;;;;;;5.47;3.10;;;;;;;6.36;100.00;101724.13;4975385;28;20053;-80
2021/12/19 00:30:27;;;;;;;8.37;2.87;;;;;;;6.34;100.00;101733.72;4977505;28;20034;-83
2021/12/19 00:32:53;;;;;;;9.23;3.10;;;;;;;6.39;100.00;101729.41;5012130;28;20459;-79
2021/12/19 00:35:21;;;;;;;6.47;3.70;;;;;;;6.37;100.00;101724.13;4978756;28;20065;-82
2021/12/19 00:37:48;;;;;;;7.07;3.13;;;;;;;6.38;100.00;101717.16;4960187;28;20071;-79
2021/12/19 00:40:16;;;;;;;9.23;3.20;;;;;;;6.39;100.00;101705.78;4966204;28;20040;-79
2021/12/19 00:42:43;;;;;;;8.93;4.23;;;;;;;6.45;100.00;101721.63;4984117;28;20164;-81
2021/12/19 00:45:27;;;;;;;5.50;3.10;;;;;;;6.39;100.00;101703.16;4965047;28;20037;-80
2021/12/19 00:47:54;;;;;;;6.27;2.83;;;;;;;6.35;100.00;101690.88;4986099;28;20081;-79
2021/12/19 00:50:23;;;;;;;8.73;3.97;;;;;;;6.35;100.00;101689.13;4977341;28;20064;-84
2021/12/19 00:52:50;;;;;;;6.07;2.90;;;;;;;6.39;100.00;101688.31;4999702;28;20056;-80
2021/12/19 00:55:20;;;;;;;5.80;3.17;;;;;;;6.34;100.00;101683.88;5002514;28;20407;-84
2021/12/19 00:57:47;;;;;;;7.27;3.27;;;;;;;6.40;100.00;101689.19;4993837;28;20064;-80
2021/12/19 01:00:21;;;;;;;9.47;4.03;;;;;;;6.34;100.00;101679.50;4970717;28;20057;-80
2021/12/19 01:02:51;;;;;;;8.23;3.20;;;;;;;6.29;100.00;101690.78;4997710;28;20046;-80
2021/12/19 01:05:20;;;;;;;9.97;3.30;;;;;;;6.33;100.00;101689.97;4971101;28;20073;-80
2021/12/19 01:07:47;;;;;;;6.37;2.83;;;;;;;6.36;100.00;101687.38;4980679;28;20041;-82
2021/12/19 01:10:14;;;;;;;8.30;3.00;;;;;;;6.40;100.00;101689.19;4978521;28;20045;-79
2021/12/19 01:12:41;;;;;;;6.77;3.37;;;;;;;6.40;100.00;101678.69;4995501;28;20122;-80
2021/12/19 01:15:12;;;;;;;7.07;3.10;;;;;;;6.35;100.00;101673.38;5010818;28;20034;-81
2021/12/19 01:17:39;;;;;;;14.30;4.43;;;;;;;6.35;100.00;101672.50;4995756;28;20740;-79
2021/12/19 01:20:11;;;;;;;6.57;3.00;;;;;;;6.36;100.00;101674.25;4983815;28;20120;-81
2021/12/19 01:22:37;;;;;;;8.27;2.67;;;;;;;6.38;100.00;101675.16;4982397;28;20067;-80
2021/12/19 01:25:05;;;;;;;9.37;3.83;;;;;;;6.29;100.00;101675.91;4966774;28;20046;-79
2021/12/19 01:27:31;;;;;;;8.00;3.23;;;;;;;6.39;100.00;101663.78;4985536;28;20565;-82
2021/12/19 01:29:58;;;;;;;8.50;3.00;;;;;;;6.39;100.00;101655.91;4979963;28;20088;-80
2021/12/19 01:32:25;;;;;;;5.90;2.60;;;;;;;6.39;100.00;101655.91;4984541;28;20041;-80
2021/12/19 01:34:53;;;;;;;4.47;2.60;;;;;;;6.31;100.00;101652.34;4983301;28;20064;-83
2021/12/19 01:37:19;;;;;;;5.13;2.60;;;;;;;6.28;100.00;101655.78;4987628;28;20463;-81
2021/12/19 01:39:46;;;;;;;6.13;2.97;;;;;;;6.35;100.00;101662.00;4992537;28;20046;-81
2021/12/19 01:42:13;;;;;;;9.40;2.73;;;;;;;6.22;100.00;101668.81;4992901;28;20561;-81
2021/12/19 01:44:40;;;;;;;4.83;2.23;;;;;;;6.31;100.00;101674.22;4997410;28;20233;-80
2021/12/19 01:47:10;;;;;;;5.83;2.53;;;;;;;6.32;100.00;101649.72;4967906;28;20058;-81
2021/12/19 01:49:37;;;;;;;11.20;2.87;;;;;;;6.25;100.00;101654.88;4977879;28;20039;-81
2021/12/19 01:52:04;;;;;;;10.87;3.93;;;;;;;6.30;100.00;101661.03;4982462;28;20045;-80
2021/12/19 01:54:30;;;;;;;5.20;2.67;;;;;;;6.34;100.00;101658.50;4976540;28;20046;-83
2021/12/19 01:56:57;;;;;;;5.97;2.30;;;;;;;6.29;100.00;101664.53;4983886;28;20041;-80
2021/12/19 01:59:23;;;;;;;5.67;2.53;;;;;;;6.30;100.00;101667.16;4966320;28;20100;-80
2021/12/19 02:01:53;;;;;;;7.00;2.70;;;;;;;6.31;100.00;101668.97;4984971;28;20045;-80
2021/12/19 02:04:26;;;;;;;8.27;3.10;;;;;;;6.28;100.00;101652.28;4991714;28;20053;-81
2021/12/19 02:06:52;;;;;;;7.03;2.40;;;;;;;6.25;100.00;101663.63;4973121;28;20046;-82
2021/12/19 02:09:19;;;;;;;6.07;2.23;;;;;;;6.28;100.00;101647.03;4977766;23;20050;-84
2021/12/19 02:11:46;;;;;;;4.67;2.70;;;;;;;6.26;100.00;101654.00;4962568;28;20038;-83
2021/12/19 02:14:12;;;;;;;7.37;2.90;;;;;;;6.33;100.00;101645.34;4974531;28;20048;-85
2021/12/19 02:16:40;;;;;;;4.70;2.30;;;;;;;6.29;100.00;101660.16;4978016;28;20049;-84
2021/12/19 02:19:11;;;;;;;8.00;3.33;;;;;;;6.30;100.00;101650.53;4967532;28;20048;-84
2021/12/19 02:21:38;;;;;;;5.00;2.63;;;;;;;6.35;100.00;101651.50;4983069;28;20041;-84
2021/12/19 02:24:07;;;;;;;4.50;2.30;;;;;;;6.29;100.00;101660.16;4992525;28;20411;-84
2021/12/19 02:26:35;;;;;;;5.30;2.63;;;;;;;6.20;100.00;101642.56;4980123;28;20064;-84
2021/12/19 02:29:02;;;;;;;4.80;3.10;;;;;;;6.24;100.00;101633.00;4980007;28;20125;-84
2021/12/19 02:31:30;;;;;;;4.70;2.73;;;;;;;6.32;100.00;101633.09;4996975;28;20037;-85
2021/12/19 02:34:11;;;;;;;4.43;2.57;;;;;;;6.28;100.00;101631.28;4983023;28;20033;-84
2021/12/19 02:36:59;;;;;;;6.80;2.47;;;;;;;6.26;100.00;101628.66;4999018;28;20793;-85
2021/12/19 02:40:06;;;;;;;5.63;2.67;;;;;;;6.24;100.00;101616.38;4975229;28;21619;-85
2021/12/19 02:48:16;;;;;;;5.20;2.50;;;;;;;6.28;100.00;101589.31;4999687;28;20053;-85
2021/12/19 02:50:48;;;;;;;5.27;2.97;;;;;;;6.27;100.00;101604.16;5000904;28;20125;-84
2021/12/19 02:53:19;;;;;;;4.67;2.30;;;;;;;6.29;100.00;101612.06;4980083;28;20466;-83
2021/12/19 02:55:46;;;;;;;3.97;2.50;;;;;;;6.28;100.00;101605.03;4990209;28;20095;-85
2021/12/19 02:58:13;;;;;;;5.50;3.63;;;;;;;6.26;100.00;101594.53;4997027;28;20042;-84
2021/12/19 03:00:40;;;;;;;4.33;2.63;;;;;;;6.30;100.00;101582.31;4979238;28;20479;-85
2021/12/19 03:03:06;;;;;;;5.70;3.17;;;;;;;6.35;100.00;101596.38;4985828;28;20044;-85
2021/12/19 03:05:34;;;;;;;4.80;2.67;;;;;;;6.31;100.00;101589.34;5010449;28;20053;-84
2021/12/19 03:08:02;;;;;;;4.23;2.77;;;;;;;6.39;100.00;101585.03;4983450;28;20107;-84
2021/12/19 03:18:29;;;;;;;3.67;2.40;;;;;;;6.43;100.00;101576.34;5013948;28;20049;-84
2021/12/19 03:20:56;;;;;;;5.37;2.40;;;;;;;6.45;100.00;101564.13;5001527;28;22066;-84
2021/12/19 03:23:23;;;;;;;3.97;2.67;;;;;;;6.43;100.00;101581.59;5007752;28;20033;-83
2021/12/19 03:25:50;;;;;;;3.10;2.07;;;;;;;6.44;100.00;101565.00;5004631;28;20049;-85
2021/12/19 03:28:17;;;;;;;3.80;2.50;;;;;;;6.41;100.00;101557.09;5001561;28;20041;-85
2021/12/19 03:30:46;;;;;;;4.10;2.50;;;;;;;6.40;100.00;101576.34;5012274;28;20041;-85
2021/12/19 03:33:13;;;;;;;2.93;2.30;;;;;;;6.35;100.00;101571.03;5006595;28;20048;-84
2021/12/19 03:35:41;;;;;;;3.10;2.13;;;;;;;6.39;100.00;101578.09;4983839;28;20038;-84
2021/12/19 03:38:09;;;;;;;5.43;2.23;;;;;;;6.41;100.00;101588.59;5003100;28;20045;-85
2021/12/19 03:40:43;;;;;;;3.60;2.00;;;;;;;6.36;100.00;101588.53;4982982;28;20612;-84
2021/12/19 03:43:26;;;;;;;4.97;2.07;;;;;;;6.36;100.00;101580.66;5001061;28;20045;-85
2021/12/19 03:45:53;;;;;;;3.47;1.90;;;;;;;6.38;100.00;101572.78;4984483;28;20048;-84
2021/12/19 03:48:20;;;;;;;4.20;2.10;;;;;;;6.40;100.00;101576.34;4982893;28;20044;-85
2021/12/19 03:50:49;;;;;;;3.80;2.03;;;;;;;6.39;100.00;101583.34;5004466;28;20046;-85
2021/12/19 03:53:18;;;;;;;3.87;2.00;;;;;;;6.36;100.00;101580.66;5000237;28;20053;-86
2021/12/19 03:55:45;;;;;;;3.17;2.30;;;;;;;6.31;100.00;101576.22;4999706;28;20123;-84
2021/12/19 03:58:12;;;;;;;3.40;1.97;;;;;;;6.33;100.00;101571.88;4983473;28;20038;-84
2021/12/19 04:00:41;;;;;;;4.63;2.53;;;;;;;6.23;100.00;101573.50;4983049;28;20037;-85
2021/12/19 04:03:10;;;;;;;4.30;2.10;;;;;;;6.30;100.00;101580.56;4983508;28;20061;-85
2021/12/19 04:05:42;;;;;;;3.57;1.70;;;;;;;6.33;100.00;101585.88;4998589;28;20058;-84
2021/12/19 04:08:09;;;;;;;6.97;1.87;;;;;;;6.27;100.00;101583.16;4983548;28;20045;-85
2021/12/19 04:10:36;;;;;;;3.43;1.77;;;;;;;6.29;100.00;101575.31;5003134;28;20038;-84
2021/12/19 04:13:03;;;;;;;3.63;1.50;;;;;;;6.19;100.00;101575.22;4994459;28;20443;-84
2021/12/19 04:15:30;;;;;;;4.60;1.80;;;;;;;6.17;100.00;101582.19;4982101;28;20733;-85
2021/12/19 04:17:57;;;;;;;3.47;2.33;;;;;;;6.07;100.00;101575.06;4995764;28;20095;-85
2021/12/19 04:20:24;;;;;;;2.50;1.60;;;;;;;6.14;100.00;101569.03;4982156;28;20098;-84
2021/12/19 04:22:52;;;;;;;4.37;1.87;;;;;;;6.17;100.00;101576.94;4988818;28;20049;-84
2021/12/19 04:25:18;;;;;;;3.03;1.60;;;;;;;6.10;100.00;101577.72;4997413;28;20045;-84
2021/12/19 04:27:46;;;;;;;3.13;1.83;;;;;;;6.00;100.00;101554.88;4988961;28;20058;-85
2021/12/19 04:30:16;;;;;;;4.00;1.53;;;;;;;6.01;100.00;101569.72;4993680;28;20065;-84
2021/12/19 04:32:46;;;;;;;3.77;1.40;;;;;;;6.03;100.00;101562.75;5014803;28;20049;-85
2021/12/19 04:35:14;;;;;;;2.93;1.70;;;;;;;6.04;100.00;101575.00;4987348;28;20123;-85
2021/12/19 04:44:11;;;;;;;2.37;1.00;;;;;;;6.00;100.00;101562.72;4962140;28;20045;-84
2021/12/19 04:57:26;;;;;;;3.80;1.27;;;;;;;5.98;100.00;101533.00;5001505;28;20041;-85
2021/12/19 05:00:09;;;;;;;4.77;1.10;;;;;;;5.92;100.00;101527.66;4997685;28;20441;-86
2021/12/19 05:15:52;;;;;;;2.33;1.07;;;;;;;5.75;100.00;101518.66;5015459;28;20045;-85
2021/12/19 05:18:22;;;;;;;1.90;1.10;;;;;;;5.73;100.00;101516.03;4987281;28;20041;-85
2021/12/19 05:20:59;;;;;;;3.63;1.33;;;;;;;5.75;100.00;101523.91;4979867;28;20502;-83
2021/12/19 05:23:38;;;;;;;1.67;1.20;;;;;;;5.74;100.00;101522.16;4997132;28;20074;-84
2021/12/19 05:26:06;;;;;;;4.17;1.40;;;;;;;5.70;100.00;101517.72;5016674;28;20033;-85
2021/12/19 05:28:33;;;;;;;2.50;1.13;;;;;;;5.69;100.00;101523.81;4996097;28;20041;-85
2021/12/19 05:31:01;;;;;;;5.20;1.60;;;;;;;5.68;100.00;101512.47;5004217;28;20041;-85
2021/12/19 05:33:27;;;;;;;3.60;2.00;;;;;;;5.69;100.00;101508.09;4984340;28;20204;-85
2021/12/19 05:45:11;;;;;;;1.57;1.10;;;;;;;5.77;100.00;101509.06;5002774;28;20542;-84
2021/12/19 05:47:00;;;;;;;3.57;1.10;;;;;;;5.65;100.00;101504.56;5014037;28;20045;-85
2021/12/19 05:49:27;;;;;;;2.77;1.10;;;;;;;5.65;100.00;101500.19;4996184;28;20417;-84
2021/12/19 05:51:57;;;;;;;2.47;1.30;;;;;;;5.73;100.00;101499.41;5005711;28;20090;-85
2021/12/19 05:54:24;;;;;;;3.43;1.57;;;;;;;5.73;100.00;101497.69;5002854;28;20052;-86
2021/12/19 05:56:51;;;;;;;4.70;1.50;;;;;;;5.76;100.00;101488.97;4996267;28;20086;-85
2021/12/19 05:59:18;;;;;;;3.10;1.37;;;;;;;5.77;100.00;101490.72;4979858;28;20056;-85
2021/12/19 06:01:46;;;;;;;1.80;1.50;;;;;;;5.74;100.00;101488.94;4975476;28;20057;-85
2021/12/19 06:04:13;;;;;;;3.57;1.13;;;;;;;5.74;100.00;101495.94;4999925;28;20076;-85
2021/12/19 06:06:41;;;;;;;5.40;1.93;;;;;;;5.71;100.00;101480.16;5006663;28;20068;-85
2021/12/19 06:09:07;;;;;;;3.20;1.50;;;;;;;5.80;100.00;101472.38;4980117;28;20084;-84
2021/12/19 06:11:34;;;;;;;2.47;1.20;;;;;;;5.71;100.00;101467.03;4987846;28;20127;-85
2021/12/19 06:14:01;;;;;;;3.27;1.67;;;;;;;5.77;100.00;101464.50;4993707;28;20410;-85
2021/12/19 06:16:29;;;;;;;2.23;1.13;;;;;;;5.79;100.00;101463.63;4980998;28;20422;-85
2021/12/19 06:18:55;;;;;;;4.93;1.40;;;;;;;5.81;100.00;101469.81;4980416;28;20049;-84
2021/12/19 06:21:22;;;;;;;2.90;1.50;;;;;;;5.77;100.00;101469.75;4986556;28;20525;-84
2021/12/19 06:23:48;;;;;;;4.20;1.80;;;;;;;5.80;100.00;101465.44;4979615;28;20445;-84
2021/12/19 06:26:15;;;;;;;3.53;2.00;;;;;;;5.80;100.00;101468.06;4993346;28;20561;-84
2021/12/19 06:28:42;;;;;;;3.13;1.50;;;;;;;5.78;100.00;101469.75;4983100;28;20664;-84
2021/12/19 06:31:09;;;;;;;4.30;1.67;;;;;;;5.76;100.00;101471.47;4980124;28;20402;-84
2021/12/19 06:33:35;;;;;;;2.57;1.40;;;;;;;5.81;100.00;101455.81;4980137;28;20644;-84
2021/12/19 06:36:03;;;;;;;3.03;1.40;;;;;;;5.90;100.00;101459.47;4980321;28;20049;-85
2021/12/19 06:38:30;;;;;;;4.97;1.67;;;;;;;5.93;100.00;101462.09;4979652;28;20038;-84
2021/12/19 06:40:56;;;;;;;2.83;1.43;;;;;;;5.85;100.00;101466.34;4995722;28;20033;-84
2021/12/19 06:43:23;;;;;;;4.70;1.67;;;;;;;5.92;100.00;101459.47;4979155;28;20042;-85
2021/12/19 06:45:49;;;;;;;5.10;1.50;;;;;;;5.91;100.00;101453.34;4999879;28;20045;-85
2021/12/19 06:48:18;;;;;;;4.20;1.90;;;;;;;5.97;100.00;101463.03;4983073;28;20041;-84
2021/12/19 06:50:45;;;;;;;4.50;1.73;;;;;;;5.90;100.00;101462.09;4980732;28;20041;-85
2021/12/19 06:53:11;;;;;;;4.33;1.43;;;;;;;5.88;100.00;101466.38;4999941;28;20052;-85
2021/12/19 06:55:38;;;;;;;3.97;1.73;;;;;;;5.82;100.00;101454.94;4983660;28;20048;-85
2021/12/19 06:58:05;;;;;;;5.73;2.00;;;;;;;5.81;100.00;101459.31;4980368;28;20045;-85
2021/12/19 07:00:31;;;;;;;4.63;2.10;;;;;;;5.94;100.00;101455.13;4983323;28;20042;-85
2021/12/19 07:02:59;;;;;;;5.60;1.67;;;;;;;5.86;100.00;101449.75;4979941;28;20046;-84
2021/12/19 07:05:26;;;;;;;3.43;1.50;;;;;;;5.92;100.00;101442.00;4994730;28;20747;-84
2021/12/19 07:07:52;;;;;;;2.00;1.30;;;;;;;5.83;100.00;101448.84;5007046;28;20045;-85
2021/12/19 07:10:19;;;;;;;2.73;1.70;;;;;;;5.88;100.00;101441.88;4998609;28;20545;-84
2021/12/19 07:12:46;;;;;;;4.03;1.80;;;;;;;5.87;100.00;101427.03;5004441;28;20049;-85
2021/12/19 07:15:17;;;;;;;3.00;1.63;;;;;;;5.93;100.00;101427.13;4981441;28;20049;-84
2021/12/19 07:17:44;;;;;;;5.43;2.00;;;;;;;5.96;100.00;101436.75;4986843;28;20436;-84
2021/12/19 07:20:11;;;;;;;3.70;1.50;;;;;;;6.03;100.00;101428.97;4981237;28;20042;-85
2021/12/19 07:22:37;;;;;;;7.53;2.50;;;;;;;5.93;100.00;101435.88;4976502;28;20714;-85
2021/12/19 07:25:04;;;;;;;3.90;2.20;;;;;;;6.00;100.00;101431.59;4980760;28;20060;-85
2021/12/19 07:27:31;;;;;;;3.53;1.67;;;;;;;5.97;100.00;101417.53;4983607;28;20049;-85
2021/12/19 07:29:58;;;;;;;2.93;1.70;;;;;;;5.98;100.00;101412.34;5013115;28;20074;-85
2021/12/19 07:32:25;;;;;;;6.50;2.10;;;;;;;6.00;100.00;101405.34;4985967;28;20052;-85
2021/12/19 07:35:13;;;;;;;2.47;1.50;;;;;;;6.01;100.00;101406.22;4996961;28;20127;-84
2021/12/19 07:37:40;;;;;;;5.30;2.37;;;;;;;5.96;100.00;101419.28;4988722;28;20052;-84
2021/12/19 07:40:17;;;;;;;6.23;2.70;;;;;;;5.92;100.00;101407.00;5007124;28;20050;-84
2021/12/19 07:42:44;;;;;;;4.17;1.33;;;;;;;5.85;100.00;101399.91;5009868;28;20080;-84
2021/12/19 07:45:12;;;;;;;3.33;1.40;;;;;;;5.87;100.00;101393.81;4996472;28;20041;-84
2021/12/19 07:47:39;;;;;;;3.00;1.40;;;;;;;5.98;100.00;101399.22;4997877;28;20046;-85
2021/12/19 07:50:08;;;;;;;2.20;1.40;;;;;;;5.95;100.00;101387.81;4980776;28;20069;-84
2021/12/19 07:52:35;;;;;;;6.43;1.50;;;;;;;5.93;100.00;101393.91;4997619;28;20107;-84
2021/12/19 07:55:02;;;;;;;4.23;1.30;;;;;;;5.93;100.00;101382.53;5002730;28;20448;-85
2021/12/19 07:57:29;;;;;;;3.57;1.40;;;;;;;5.87;100.00;101379.81;4973076;28;20045;-83
2021/12/19 07:59:56;;;;;;;3.47;1.40;;;;;;;5.94;100.00;101384.31;5014064;28;20503;-82
2021/12/19 08:02:22;;;;;;;4.57;1.30;;;;;;;5.98;100.00;101369.50;4980489;28;20498;-85
2021/12/19 08:04:49;;;;;;;4.03;1.20;;;;;;;5.97;100.00;101376.47;5012114;28;20049;-84
2021/12/19 08:07:17;;;;;;;2.20;1.10;;;;;;;5.97;100.00;101371.25;4981511;28;20038;-85
2021/12/19 08:09:59;;;;;;;4.00;1.40;;;;;;;5.99;100.00;101368.63;4998594;28;20045;-85
2021/12/19 08:12:27;;;;;;;2.77;1.87;;;;;;;6.07;100.00;101369.56;4984581;28;20038;-84
2021/12/19 08:14:54;;;;;;;3.60;1.30;;;;;;;5.95;100.00;101372.06;4983626;28;20099;-85
2021/12/19 08:17:23;;;;;;;3.53;1.67;;;;;;;6.06;100.00;101365.19;4965112;28;20045;-85
2021/12/19 08:19:50;;;;;;;5.77;1.73;;;;;;;6.08;100.00;101360.84;4993853;28;20099;-85
2021/12/19 08:22:16;;;;;;;3.27;1.43;;;;;;;6.02;100.00;101363.41;4983374;28;20037;-84
2021/12/19 08:24:45;;;;;;;3.93;1.20;;;;;;;6.08;100.00;101369.59;4998428;28;20046;-84
2021/12/19 08:27:12;;;;;;;7.33;2.00;;;;;;;6.12;100.00;101366.09;4985939;28;20049;-85
2021/12/19 08:29:39;;;;;;;3.90;1.60;;;;;;;6.12;100.00;101358.25;4982348;28;20064;-85
2021/12/19 08:32:06;;;;;;;3.10;1.20;;;;;;;6.04;100.00;101364.28;4984808;28;20038;-85
2021/12/19 08:34:33;;;;;;;5.43;1.57;;;;;;;6.07;100.00;101353.84;4982285;28;20049;-84
2021/12/19 08:37:02;;;;;;;2.23;1.20;;;;;;;6.10;100.00;101349.47;4975963;28;20131;-86
2021/12/19 08:39:30;;;;;;;4.83;1.20;;;;;;;6.08;100.00;101342.47;4987852;28;20046;-84
2021/12/19 08:41:57;;;;;;;4.80;1.30;;;;;;;6.11;100.00;101327.63;4983195;28;20041;-85
2021/12/19 08:44:24;;;;;;;4.60;1.77;;;;;;;6.09;100.00;101337.25;4981458;28;20052;-84
2021/12/19 08:46:50;;;;;;;2.90;1.43;;;;;;;6.09;100.00;101347.72;4984886;28;20076;-85
2021/12/19 08:49:17;;;;;;;7.43;4.83;;;;;;;6.13;100.00;101336.38;4986180;28;20057;-84
2021/12/19 08:51:46;;;;;;;16.60;7.50;;;;;;;6.10;100.00;101319.75;4993975;28;20065;-85
2021/12/19 08:54:13;;;;;;;56.23;29.30;;;;;;;6.05;100.00;101316.19;4983202;28;20570;-85
2021/12/19 08:56:39;;;;;;;6.60;3.03;;;;;;;6.09;100.00;101321.50;4984630;28;20045;-84
2021/12/19 08:59:06;;;;;;;4.93;3.17;;;;;;;6.01;100.00;101328.41;4983493;28;20045;-83
2021/12/19 09:01:33;;;;;;;4.13;2.60;;;;;;;5.98;100.00;101312.66;4987430;28;20033;-84
2021/12/19 09:04:00;;;;;;;4.60;2.23;;;;;;;6.00;100.00;101317.91;4980998;28;20588;-85
2021/12/19 09:06:28;;;;;;;2.90;1.50;;;;;;;6.04;100.00;101317.06;4995114;28;20044;-84
2021/12/19 09:08:55;;;;;;;4.40;2.23;;;;;;;6.09;100.00;101311.00;5008195;28;20045;-85
2021/12/19 09:11:22;;;;;;;4.30;1.80;;;;;;;6.10;100.00;101317.13;4974811;28;20095;-84
2021/12/19 09:13:49;;;;;;;7.27;4.53;;;;;;;6.06;100.00;101310.13;4983963;28;20046;-83
2021/12/19 09:16:15;;;;;;;5.80;1.87;;;;;;;6.07;100.00;101315.38;5008115;28;20525;-84
2021/12/19 09:19:02;;;;;;;2.80;1.73;;;;;;;5.97;100.00;101325.75;4990548;28;20124;-85
2021/12/19 09:21:29;;;;;;;4.23;1.80;;;;;;;6.00;100.00;101310.94;4999259;28;20041;-84
2021/12/19 09:23:55;;;;;;;4.47;1.83;;;;;;;5.96;100.00;101316.13;4996900;28;20445;-84
2021/12/19 09:26:23;;;;;;;14.00;12.83;;;;;;;5.92;100.00;101318.72;4983499;28;20061;-84
2021/12/19 09:28:49;;;;;;;4.23;2.87;;;;;;;5.95;100.00;101323.13;4990033;28;20103;-85
2021/12/19 09:31:16;;;;;;;11.70;2.17;;;;;;;5.95;100.00;101319.63;4976269;28;20037;-85
2021/12/19 09:33:43;;;;;;;6.00;1.60;;;;;;;5.91;100.00;101316.09;4992821;28;20053;-84
2021/12/19 09:36:09;;;;;;;5.40;1.53;;;;;;;6.00;100.00;101308.31;4975981;28;20041;-85
2021/12/19 09:38:36;;;;;;;4.67;1.90;;;;;;;5.98;100.00;101306.53;4978799;28;20045;-85
2021/12/19 09:41:13;;;;;;;3.97;2.07;;;;;;;5.99;100.00;101290.81;5013526;28;20046;-85
2021/12/19 09:43:43;;;;;;;4.43;1.33;;;;;;;6.05;100.00;101296.09;4982253;28;20075;-84
2021/12/19 09:46:18;;;;;;;6.63;2.27;;;;;;;6.06;100.00;101286.50;4992816;28;20037;-85
2021/12/19 09:48:47;;;;;;;6.90;1.93;;;;;;;6.04;100.00;101283.84;4977329;28;20107;-84
2021/12/19 09:51:16;;;;;;;6.80;1.73;;;;;;;6.05;100.00;101288.22;4992184;28;20041;-86
2021/12/19 09:53:44;;;;;;;7.67;2.63;;;;;;;6.01;100.00;101277.72;4979497;28;20041;-85
2021/12/19 09:56:12;;;;;;;3.60;1.43;;;;;;;6.01;100.00;101264.59;4996845;28;20136;-85
2021/12/19 09:58:40;;;;;;;6.63;1.77;;;;;;;6.02;100.00;101276.84;4980980;28;20037;-85
2021/12/19 10:01:10;;;;;;;3.70;1.73;;;;;;;6.06;100.00;101279.50;4981218;28;20099;-85
2021/12/19 10:03:37;;;;;;;5.03;1.67;;;;;;;5.95;100.00;101270.66;4997724;28;20045;-85
2021/12/19 10:06:24;;;;;;;3.93;1.40;;;;;;;5.97;100.00;101263.72;4997639;28;20494;-86
2021/12/19 10:09:11;;;;;;;5.07;2.00;;;;;;;6.00;100.00;101261.09;4971370;28;20100;-86
2021/12/19 10:14:27;;;;;;;7.03;2.00;;;;;;;6.05;100.00;101267.22;5003242;28;20070;-86
2021/12/19 10:16:55;;;;;;;3.92;2.20;;;;;;;5.99;100.00;101264.59;4995036;28;20414;-86
2021/12/19 10:19:47;;;;;;;3.37;1.60;;;;;;;5.98;100.00;101268.09;4997539;28;20041;-87
2021/12/19 10:22:30;;;;;;;4.90;1.90;;;;;;;6.09;100.00;101260.28;4989562;28;20080;-87
2021/12/19 10:25:18;;;;;;;9.03;1.80;;;;;;;6.09;100.00;101255.03;4990421;28;20053;-87
2021/12/19 10:27:52;;;;;;;4.70;2.23;;;;;;;6.11;100.00;101251.56;5006888;28;20454;-87
2021/12/19 10:30:31;;;;;;;3.92;2.00;;;;;;;6.12;100.00;101252.44;4984820;28;20047;-87
2021/12/19 10:33:04;;;;;;;11.83;6.77;;;;;;;6.09;100.00;101253.28;4997219;28;20091;-87
2021/12/19 10:35:51;;;;;;;5.90;3.25;;;;;;;6.13;100.00;101238.44;4978563;28;20556;-87
2021/12/19 10:38:19;;;;;;;12.57;5.80;;;;;;;6.10;100.00;101246.31;4994667;28;20046;-87
2021/12/19 10:40:51;;;;;;;15.90;12.20;;;;;;;6.16;100.00;101230.59;4980952;28;20615;-87
2021/12/19 10:43:18;;;;;;;9.40;3.37;;;;;;;6.12;100.00;101232.31;4995928;28;20053;-87
2021/12/19 10:45:48;;;;;;;4.20;2.17;;;;;;;6.13;100.00;101235.81;4985392;28;20056;-88
2021/12/19 10:48:30;;;;;;;7.17;2.60;;;;;;;6.10;100.00;101234.06;4975876;28;20050;-88
2021/12/19 10:51:09;;;;;;;6.40;4.07;;;;;;;6.12;100.00;101228.81;4995293;28;20046;-86
2021/12/19 10:53:49;;;;;;;6.43;3.10;;;;;;;6.15;100.00;101221.00;4989767;28;20049;-87
2021/12/19 10:56:23;;;;;;;3.50;1.83;;;;;;;6.14;100.00;101211.38;4982910;28;20048;-87
2021/12/19 10:58:57;;;;;;;5.50;2.90;;;;;;;6.13;100.00;101206.97;5006287;28;20045;-86
2021/12/19 11:01:29;;;;;;;;;;;;;;;6.21;100.00;101202.63;5008619;28;20049;-87
2021/12/19 11:04:06;;;;;;;8.43;3.00;;;;;;;6.12;100.00;101197.34;4994289;28;19925;-87
2021/12/19 11:06:47;;;;;;;7.80;2.43;;;;;;;6.05;100.00;101201.66;4993507;28;20037;-87
2021/12/19 11:09:24;;;;;;;5.70;1.97;;;;;;;6.08;100.00;101196.44;5015216;28;20049;-86
2021/12/19 11:11:53;;;;;;;7.80;2.70;;;;;;;6.05;100.00;101191.16;4996013;28;20100;-86
2021/12/19 11:14:20;;;;;;;3.50;2.07;;;;;;;6.03;100.00;101176.28;4975246;28;20071;-84
2021/12/19 11:16:48;;;;;;;4.07;1.50;;;;;;;6.00;100.00;101163.19;4999483;28;20050;-85
2021/12/19 11:19:15;;;;;;;7.30;5.80;;;;;;;6.03;100.00;101161.44;4995754;28;20092;-87
2021/12/19 11:21:54;;;;;;;7.40;6.27;;;;;;;5.95;100.00;101147.41;4996151;28;20033;-85
2021/12/19 11:24:22;;;;;;;7.43;2.83;;;;;;;6.02;100.00;101145.69;4961599;28;20099;-85
2021/12/19 11:26:53;;;;;;;19.17;2.20;;;;;;;6.08;100.00;101153.59;4985443;28;20041;-87
2021/12/19 11:29:20;;;;;;;6.37;1.47;;;;;;;6.05;100.00;101154.44;4994506;28;20501;-87
2021/12/19 11:31:50;;;;;;;4.87;2.00;;;;;;;6.05;100.00;101143.06;4994349;28;20041;-83
2021/12/19 11:34:45;;;;;;;4.73;1.80;;;;;;;6.05;100.00;101149.19;4982109;28;20054;-85
2021/12/19 11:37:14;;;;;;;4.43;2.58;;;;;;;6.04;100.00;101150.06;4989923;28;20041;-85
2021/12/19 11:39:48;;;;;;;5.87;1.70;;;;;;;6.10;100.00;101152.75;4994508;28;20045;-82
2021/12/19 11:42:18;;;;;;;5.13;2.00;;;;;;;6.07;100.00;101150.13;4992295;28;20107;-83
2021/12/19 11:47:42;;;;;;;6.50;1.90;;;;;;;6.09;100.00;101137.00;4996334;28;20068;-85
2021/12/19 11:50:14;;;;;;;4.13;1.80;;;;;;;6.05;100.00;101143.94;4995755;28;20063;-85
2021/12/19 11:52:47;;;;;;;6.87;3.00;;;;;;;6.01;100.00;101133.44;4983993;28;20041;-86
2021/12/19 11:55:13;;;;;;;8.30;3.10;;;;;;;6.04;100.00;101126.47;4988152;28;20075;-84
2021/12/19 11:57:41;;;;;;;6.87;2.00;;;;;;;6.07;100.00;101129.13;4998743;28;20045;-86
2021/12/19 12:00:27;;;;;;;6.17;2.40;;;;;;;6.08;100.00;101128.25;4979496;28;20057;-86
2021/12/19 12:03:12;;;;;;;4.50;2.20;;;;;;;6.09;100.00;101111.66;4982259;28;20751;-85
2021/12/19 12:05:48;;;;;;;5.43;2.80;;;;;;;6.12;100.00;101105.53;4997282;28;20056;-86
2021/12/19 12:08:23;;;;;;;9.33;4.90;;;;;;;6.08;100.00;101106.41;4981946;28;20053;-85
2021/12/19 12:10:58;;;;;;;4.07;2.00;;;;;;;6.16;100.00;101108.19;4976436;28;20068;-85
2021/12/19 12:13:32;;;;;;;8.90;3.10;;;;;;;6.12;100.00;101106.41;4990069;28;20108;-86
2021/12/19 12:16:29;;;;;;;6.43;3.28;;;;;;;6.10;100.00;101102.91;4999949;28;20077;-86
2021/12/19 12:19:01;;;;;;;7.20;3.33;;;;;;;6.13;100.00;101102.91;5018037;28;20058;-85
2021/12/19 12:21:35;;;;;;;4.67;2.30;;;;;;;6.15;100.00;101097.69;4967943;28;20140;-84
2021/12/19 12:24:13;;;;;;;6.10;2.00;;;;;;;6.21;100.00;101097.69;4978136;28;20739;-87
2021/12/19 12:26:52;;;;;;;5.43;2.60;;;;;;;6.18;100.00;101089.81;4995782;28;20284;-87
2021/12/19 12:29:20;;;;;;;3.90;2.00;;;;;;;6.13;100.00;101091.53;4996918;28;20037;-84
2021/12/19 12:31:47;;;;;;;4.93;2.30;;;;;;;6.17;100.00;101082.81;4982692;28;20042;-86
2021/12/19 12:34:16;;;;;;;12.50;2.47;;;;;;;6.12;100.00;101079.28;4981120;28;20050;-86
2021/12/19 12:36:43;;;;;;;4.83;1.93;;;;;;;6.13;100.00;101066.19;5005580;28;20575;-87
2021/12/19 12:39:22;;;;;;;4.43;1.53;;;;;;;6.18;100.00;101074.06;4994605;28;20092;-87